sensor_id;sensor_type;location;lat;lon;timestamp;pressure;altitude;pressure_sealevel;temperature;humidity
34237;BME280;20501;45.956;13.632;2023-12-20T00:00:12;100677.16;;;4.94;72.86
34237;BME280;20501;45.956;13.632;2023-12-20T00:02:38;100666.50;;;4.79;73.17
34237;BME280;20501;45.956;13.632;2023-12-20T00:05:04;100670.91;;;4.66;74.05
34237;BME280;20501;45.956;13.632;2023-12-20T00:07:29;100661.78;;;4.56;74.51
34237;BME280;20501;45.956;13.632;2023-12-20T00:09:55;100662.97;;;4.79;73.80
34237;BME280;20501;45.956;13.632;2023-12-20T00:12:20;100658.09;;;5.26;71.90
34237;BME280;20501;45.956;13.632;2023-12-20T00:14:45;100657.00;;;4.88;73.39
34237;BME280;20501;45.956;13.632;2023-12-20T00:17:11;100650.53;;;5.05;72.37
34237;BME280;20501;45.956;13.632;2023-12-20T00:19:36;100658.16;;;5.24;71.55
34237;BME280;20501;45.956;13.632;2023-12-20T00:22:02;100650.88;;;4.86;73.45
34237;BME280;20501;45.956;13.632;2023-12-20T00:24:27;100646.84;;;5.34;71.81
34237;BME280;20501;45.956;13.632;2023-12-20T00:26:53;100646.63;;;5.37;71.27
34237;BME280;20501;45.956;13.632;2023-12-20T00:29:18;100646.84;;;5.60;70.40
34237;BME280;20501;45.956;13.632;2023-12-20T00:31:44;100655.75;;;5.86;69.62
34237;BME280;20501;45.956;13.632;2023-12-20T00:34:10;100649.56;;;5.85;69.32
34237;BME280;20501;45.956;13.632;2023-12-20T00:36:35;100638.94;;;6.10;68.40
34237;BME280;20501;45.956;13.632;2023-12-20T00:39:00;100644.81;;;5.63;69.48
34237;BME280;20501;45.956;13.632;2023-12-20T00:41:26;100639.34;;;5.91;69.01
34237;BME280;20501;45.956;13.632;2023-12-20T00:43:51;100635.78;;;5.25;71.18
34237;BME280;20501;45.956;13.632;2023-12-20T00:46:17;100645.34;;;4.89;72.53
34237;BME280;20501;45.956;13.632;2023-12-20T00:48:42;100645.53;;;4.86;73.10
34237;BME280;20501;45.956;13.632;2023-12-20T00:51:08;100638.91;;;5.32;71.27
34237;BME280;20501;45.956;13.632;2023-12-20T00:53:34;100625.09;;;5.64;70.23
34237;BME280;20501;45.956;13.632;2023-12-20T00:55:59;100630.03;;;5.83;69.99
34237;BME280;20501;45.956;13.632;2023-12-20T00:58:25;100628.41;;;6.07;69.62
34237;BME280;20501;45.956;13.632;2023-12-20T01:00:51;100621.16;;;5.83;69.85
34237;BME280;20501;45.956;13.632;2023-12-20T01:03:17;100621.88;;;5.98;69.59
34237;BME280;20501;45.956;13.632;2023-12-20T01:05:42;100620.06;;;5.85;70.12
34237;BME280;20501;45.956;13.632;2023-12-20T01:08:08;100614.88;;;5.95;69.79
34237;BME280;20501;45.956;13.632;2023-12-20T01:10:33;100606.75;;;5.84;69.98
34237;BME280;20501;45.956;13.632;2023-12-20T01:12:58;100601.47;;;5.95;69.35
34237;BME280;20501;45.956;13.632;2023-12-20T01:15:24;100601.72;;;5.92;69.17
34237;BME280;20501;45.956;13.632;2023-12-20T01:17:49;100600.66;;;5.82;69.14
34237;BME280;20501;45.956;13.632;2023-12-20T01:20:15;100602.34;;;5.96;68.43
34237;BME280;20501;45.956;13.632;2023-12-20T01:22:40;100600.34;;;5.99;68.06
34237;BME280;20501;45.956;13.632;2023-12-20T01:25:08;100590.66;;;5.97;68.30
34237;BME280;20501;45.956;13.632;2023-12-20T01:27:33;100587.97;;;5.97;68.26
34237;BME280;20501;45.956;13.632;2023-12-20T01:29:58;100593.03;;;6.01;68.37
34237;BME280;20501;45.956;13.632;2023-12-20T01:32:24;100585.84;;;6.02;68.08
34237;BME280;20501;45.956;13.632;2023-12-20T01:34:49;100586.28;;;5.83;69.05
34237;BME280;20501;45.956;13.632;2023-12-20T01:37:15;100581.75;;;5.96;68.67
34237;BME280;20501;45.956;13.632;2023-12-20T01:39:40;100583.44;;;6.10;68.28
34237;BME280;20501;45.956;13.632;2023-12-20T01:42:06;100577.34;;;5.95;69.07
34237;BME280;20501;45.956;13.632;2023-12-20T01:44:31;100576.06;;;6.01;68.70
34237;BME280;20501;45.956;13.632;2023-12-20T01:46:57;100569.63;;;5.91;69.36
34237;BME280;20501;45.956;13.632;2023-12-20T01:49:22;100561.06;;;5.85;69.60
34237;BME280;20501;45.956;13.632;2023-12-20T01:51:49;100561.59;;;5.91;69.24
34237;BME280;20501;45.956;13.632;2023-12-20T01:54:15;100568.16;;;5.86;69.39
34237;BME280;20501;45.956;13.632;2023-12-20T01:56:41;100562.75;;;6.12;69.32
34237;BME280;20501;45.956;13.632;2023-12-20T01:59:07;100559.78;;;5.78;69.63
34237;BME280;20501;45.956;13.632;2023-12-20T02:01:34;100558.19;;;5.76;69.78
34237;BME280;20501;45.956;13.632;2023-12-20T02:04:01;100557.53;;;5.85;69.20
34237;BME280;20501;45.956;13.632;2023-12-20T02:06:30;100552.50;;;5.93;68.93
34237;BME280;20501;45.956;13.632;2023-12-20T02:08:58;100543.16;;;5.86;68.98
34237;BME280;20501;45.956;13.632;2023-12-20T02:11:25;100540.03;;;6.05;68.79
34237;BME280;20501;45.956;13.632;2023-12-20T02:13:50;100544.44;;;5.80;69.14
34237;BME280;20501;45.956;13.632;2023-12-20T02:16:16;100536.81;;;5.87;69.24
34237;BME280;20501;45.956;13.632;2023-12-20T02:18:43;100535.97;;;5.86;68.99
34237;BME280;20501;45.956;13.632;2023-12-20T02:21:09;100541.22;;;5.88;69.04
34237;BME280;20501;45.956;13.632;2023-12-20T02:23:35;100533.53;;;5.70;69.65
34237;BME280;20501;45.956;13.632;2023-12-20T02:26:00;100527.75;;;5.64;69.95
34237;BME280;20501;45.956;13.632;2023-12-20T02:28:26;100533.22;;;5.75;70.12
34237;BME280;20501;45.956;13.632;2023-12-20T02:30:52;100526.88;;;5.63;69.36
34237;BME280;20501;45.956;13.632;2023-12-20T02:33:17;100519.28;;;5.57;69.50
34237;BME280;20501;45.956;13.632;2023-12-20T02:35:42;100517.03;;;5.64;69.16
34237;BME280;20501;45.956;13.632;2023-12-20T02:38:08;100517.69;;;5.67;69.54
34237;BME280;20501;45.956;13.632;2023-12-20T02:40:33;100505.56;;;5.62;69.36
34237;BME280;20501;45.956;13.632;2023-12-20T02:42:59;100511.34;;;5.68;68.79
34237;BME280;20501;45.956;13.632;2023-12-20T02:45:24;100505.88;;;5.83;68.68
34237;BME280;20501;45.956;13.632;2023-12-20T02:47:50;100499.13;;;5.77;68.68
34237;BME280;20501;45.956;13.632;2023-12-20T02:50:16;100503.00;;;5.60;69.04
34237;BME280;20501;45.956;13.632;2023-12-20T02:52:44;100498.28;;;5.64;69.10
34237;BME280;20501;45.956;13.632;2023-12-20T02:55:10;100501.94;;;5.63;69.24
34237;BME280;20501;45.956;13.632;2023-12-20T02:57:35;100494.13;;;5.84;68.35
34237;BME280;20501;45.956;13.632;2023-12-20T03:00:01;100489.56;;;5.73;68.18
34237;BME280;20501;45.956;13.632;2023-12-20T03:02:27;100495.94;;;5.59;68.87
34237;BME280;20501;45.956;13.632;2023-12-20T03:04:52;100491.25;;;5.50;68.67
34237;BME280;20501;45.956;13.632;2023-12-20T03:07:18;100493.25;;;5.59;68.24
34237;BME280;20501;45.956;13.632;2023-12-20T03:09:43;100485.34;;;5.45;68.57
34237;BME280;20501;45.956;13.632;2023-12-20T03:12:09;100483.13;;;5.00;70.22
34237;BME280;20501;45.956;13.632;2023-12-20T03:14:34;100470.78;;;5.23;69.55
34237;BME280;20501;45.956;13.632;2023-12-20T03:16:59;100467.34;;;5.34;69.61
34237;BME280;20501;45.956;13.632;2023-12-20T03:19:25;100463.78;;;5.59;68.60
34237;BME280;20501;45.956;13.632;2023-12-20T03:21:50;100464.94;;;5.55;68.75
34237;BME280;20501;45.956;13.632;2023-12-20T03:24:18;100466.19;;;5.12;69.60
34237;BME280;20501;45.956;13.632;2023-12-20T03:26:43;100467.03;;;5.13;69.66
34237;BME280;20501;45.956;13.632;2023-12-20T03:29:09;100465.53;;;4.95;69.90
34237;BME280;20501;45.956;13.632;2023-12-20T03:31:34;100473.16;;;5.15;69.34
34237;BME280;20501;45.956;13.632;2023-12-20T03:33:59;100460.72;;;5.14;69.77
34237;BME280;20501;45.956;13.632;2023-12-20T03:36:25;100462.97;;;5.33;69.06
34237;BME280;20501;45.956;13.632;2023-12-20T03:38:50;100459.50;;;5.43;68.38
34237;BME280;20501;45.956;13.632;2023-12-20T03:41:16;100457.06;;;5.27;68.79
34237;BME280;20501;45.956;13.632;2023-12-20T03:43:41;100462.75;;;5.23;69.05
34237;BME280;20501;45.956;13.632;2023-12-20T03:46:08;100462.41;;;5.40;68.28
34237;BME280;20501;45.956;13.632;2023-12-20T03:48:33;100456.50;;;5.61;67.96
34237;BME280;20501;45.956;13.632;2023-12-20T03:50:59;100446.75;;;5.47;67.93
34237;BME280;20501;45.956;13.632;2023-12-20T03:53:24;100450.97;;;5.13;69.77
34237;BME280;20501;45.956;13.632;2023-12-20T03:55:50;100443.06;;;5.11;70.04
34237;BME280;20501;45.956;13.632;2023-12-20T03:58:15;100444.88;;;5.23;69.45
34237;BME280;20501;45.956;13.632;2023-12-20T04:00:40;100444.66;;;5.14;70.14
34237;BME280;20501;45.956;13.632;2023-12-20T04:03:06;100434.78;;;5.27;69.37
34237;BME280;20501;45.956;13.632;2023-12-20T04:05:32;100435.53;;;5.16;69.14
34237;BME280;20501;45.956;13.632;2023-12-20T04:07:57;100428.28;;;5.05;69.40
34237;BME280;20501;45.956;13.632;2023-12-20T04:10:23;100420.34;;;5.17;68.75
34237;BME280;20501;45.956;13.632;2023-12-20T04:12:48;100424.63;;;4.93;69.70
34237;BME280;20501;45.956;13.632;2023-12-20T04:15:14;100423.88;;;4.91;69.60
34237;BME280;20501;45.956;13.632;2023-12-20T04:17:39;100430.38;;;5.13;68.76
34237;BME280;20501;45.956;13.632;2023-12-20T04:20:05;100412.06;;;5.20;68.80
34237;BME280;20501;45.956;13.632;2023-12-20T04:22:31;100413.78;;;5.21;68.78
34237;BME280;20501;45.956;13.632;2023-12-20T04:24:56;100414.75;;;5.20;69.00
34237;BME280;20501;45.956;13.632;2023-12-20T04:27:21;100405.91;;;5.06;69.32
34237;BME280;20501;45.956;13.632;2023-12-20T04:29:47;100400.38;;;5.34;68.71
34237;BME280;20501;45.956;13.632;2023-12-20T04:32:12;100405.31;;;5.27;68.76
34237;BME280;20501;45.956;13.632;2023-12-20T04:34:38;100393.56;;;5.17;69.00
34237;BME280;20501;45.956;13.632;2023-12-20T04:37:04;100391.75;;;5.04;69.37
34237;BME280;20501;45.956;13.632;2023-12-20T04:39:29;100389.50;;;4.98;69.89
34237;BME280;20501;45.956;13.632;2023-12-20T04:41:55;100387.16;;;5.06;69.19
34237;BME280;20501;45.956;13.632;2023-12-20T04:44:20;100388.47;;;4.62;70.37
34237;BME280;20501;45.956;13.632;2023-12-20T04:46:45;100391.97;;;5.01;69.49
34237;BME280;20501;45.956;13.632;2023-12-20T04:49:11;100382.69;;;5.31;68.27
34237;BME280;20501;45.956;13.632;2023-12-20T04:51:36;100381.81;;;5.43;67.88
34237;BME280;20501;45.956;13.632;2023-12-20T04:54:03;100374.94;;;5.02;68.76
34237;BME280;20501;45.956;13.632;2023-12-20T04:56:28;100359.97;;;5.00;69.14
34237;BME280;20501;45.956;13.632;2023-12-20T04:58:54;100356.09;;;4.91;69.42
34237;BME280;20501;45.956;13.632;2023-12-20T05:01:19;100357.09;;;4.77;69.73
34237;BME280;20501;45.956;13.632;2023-12-20T05:03:45;100351.53;;;4.41;71.34
34237;BME280;20501;45.956;13.632;2023-12-20T05:06:11;100361.97;;;4.18;72.33
34237;BME280;20501;45.956;13.632;2023-12-20T05:08:36;100361.78;;;4.34;71.42
34237;BME280;20501;45.956;13.632;2023-12-20T05:11:02;100355.03;;;4.29;71.70
34237;BME280;20501;45.956;13.632;2023-12-20T05:13:28;100358.69;;;4.67;70.55
34237;BME280;20501;45.956;13.632;2023-12-20T05:15:53;100368.19;;;4.71;70.14
34237;BME280;20501;45.956;13.632;2023-12-20T05:18:20;100368.31;;;4.82;69.91
34237;BME280;20501;45.956;13.632;2023-12-20T05:20:46;100359.66;;;4.78;69.88
34237;BME280;20501;45.956;13.632;2023-12-20T05:23:11;100353.97;;;4.70;69.95
34237;BME280;20501;45.956;13.632;2023-12-20T05:25:38;100367.47;;;4.69;69.92
34237;BME280;20501;45.956;13.632;2023-12-20T05:28:04;100361.25;;;4.68;70.22
34237;BME280;20501;45.956;13.632;2023-12-20T05:30:29;100362.66;;;4.61;70.55
34237;BME280;20501;45.956;13.632;2023-12-20T05:32:55;100362.31;;;4.78;69.92
34237;BME280;20501;45.956;13.632;2023-12-20T05:35:20;100357.50;;;4.71;70.60
34237;BME280;20501;45.956;13.632;2023-12-20T05:37:47;100368.00;;;4.74;70.27
34237;BME280;20501;45.956;13.632;2023-12-20T05:40:12;100366.19;;;4.87;69.55
34237;BME280;20501;45.956;13.632;2023-12-20T05:42:38;100364.34;;;5.01;68.91
34237;BME280;20501;45.956;13.632;2023-12-20T05:45:04;100368.72;;;4.89;69.62
34237;BME280;20501;45.956;13.632;2023-12-20T05:47:30;100375.69;;;4.91;69.60
34237;BME280;20501;45.956;13.632;2023-12-20T05:49:56;100383.72;;;4.91;69.30
34237;BME280;20501;45.956;13.632;2023-12-20T05:52:21;100390.91;;;4.78;69.68
34237;BME280;20501;45.956;13.632;2023-12-20T05:54:47;100389.00;;;4.80;69.70
34237;BME280;20501;45.956;13.632;2023-12-20T05:57:12;100391.22;;;4.99;69.03
34237;BME280;20501;45.956;13.632;2023-12-20T05:59:38;100380.72;;;4.83;69.72
34237;BME280;20501;45.956;13.632;2023-12-20T06:02:04;100378.81;;;4.85;69.81
34237;BME280;20501;45.956;13.632;2023-12-20T06:04:30;100367.75;;;5.03;69.21
34237;BME280;20501;45.956;13.632;2023-12-20T06:06:55;100371.09;;;4.80;69.96
34237;BME280;20501;45.956;13.632;2023-12-20T06:09:21;100358.88;;;5.02;69.40
34237;BME280;20501;45.956;13.632;2023-12-20T06:11:46;100349.03;;;4.90;69.36
34237;BME280;20501;45.956;13.632;2023-12-20T06:14:11;100347.72;;;5.08;69.08
34237;BME280;20501;45.956;13.632;2023-12-20T06:16:37;100354.09;;;5.19;67.89
34237;BME280;20501;45.956;13.632;2023-12-20T06:19:02;100356.41;;;5.12;68.19
34237;BME280;20501;45.956;13.632;2023-12-20T06:21:28;100357.13;;;5.27;67.54
34237;BME280;20501;45.956;13.632;2023-12-20T06:23:53;100360.28;;;5.45;66.72
34237;BME280;20501;45.956;13.632;2023-12-20T06:26:20;100357.25;;;5.74;66.09
34237;BME280;20501;45.956;13.632;2023-12-20T06:28:45;100360.84;;;5.37;67.30
34237;BME280;20501;45.956;13.632;2023-12-20T06:31:11;100359.53;;;5.30;67.60
34237;BME280;20501;45.956;13.632;2023-12-20T06:33:36;100354.25;;;5.41;67.59
34237;BME280;20501;45.956;13.632;2023-12-20T06:36:02;100356.38;;;5.25;68.29
34237;BME280;20501;45.956;13.632;2023-12-20T06:38:27;100353.28;;;5.18;68.87
34237;BME280;20501;45.956;13.632;2023-12-20T06:40:53;100352.44;;;5.18;68.87
34237;BME280;20501;45.956;13.632;2023-12-20T06:43:19;100349.06;;;5.27;68.42
34237;BME280;20501;45.956;13.632;2023-12-20T06:45:44;100342.56;;;5.18;68.47
34237;BME280;20501;45.956;13.632;2023-12-20T06:48:09;100336.56;;;5.15;68.67
34237;BME280;20501;45.956;13.632;2023-12-20T06:50:37;100333.56;;;5.19;68.31
34237;BME280;20501;45.956;13.632;2023-12-20T06:53:05;100321.97;;;5.19;68.92
34237;BME280;20501;45.956;13.632;2023-12-20T06:55:32;100326.38;;;5.20;68.45
34237;BME280;20501;45.956;13.632;2023-12-20T06:57:57;100313.38;;;5.26;68.21
34237;BME280;20501;45.956;13.632;2023-12-20T07:00:23;100323.88;;;5.30;68.20
34237;BME280;20501;45.956;13.632;2023-12-20T07:02:48;100327.25;;;5.69;66.88
34237;BME280;20501;45.956;13.632;2023-12-20T07:05:16;100342.63;;;5.78;66.48
34237;BME280;20501;45.956;13.632;2023-12-20T07:07:42;100357.94;;;5.65;67.93
34237;BME280;20501;45.956;13.632;2023-12-20T07:10:08;100362.16;;;5.56;67.46
34237;BME280;20501;45.956;13.632;2023-12-20T07:12:33;100362.03;;;5.57;67.41
34237;BME280;20501;45.956;13.632;2023-12-20T07:14:58;100362.63;;;5.50;67.57
34237;BME280;20501;45.956;13.632;2023-12-20T07:17:24;100353.63;;;5.38;68.24
34237;BME280;20501;45.956;13.632;2023-12-20T07:19:50;100358.28;;;5.60;68.70
34237;BME280;20501;45.956;13.632;2023-12-20T07:22:15;100360.16;;;5.47;68.33
34237;BME280;20501;45.956;13.632;2023-12-20T07:24:40;100357.31;;;5.61;68.10
34237;BME280;20501;45.956;13.632;2023-12-20T07:27:06;100350.06;;;5.50;68.84
34237;BME280;20501;45.956;13.632;2023-12-20T07:29:31;100349.94;;;5.52;68.49
34237;BME280;20501;45.956;13.632;2023-12-20T07:31:57;100348.41;;;5.85;68.34
34237;BME280;20501;45.956;13.632;2023-12-20T07:34:22;100355.66;;;5.96;68.54
34237;BME280;20501;45.956;13.632;2023-12-20T07:36:48;100361.34;;;5.91;67.25
34237;BME280;20501;45.956;13.632;2023-12-20T07:39:14;100359.25;;;5.83;67.58
34237;BME280;20501;45.956;13.632;2023-12-20T07:41:39;100356.78;;;5.80;67.84
34237;BME280;20501;45.956;13.632;2023-12-20T07:44:05;100361.94;;;5.59;68.26
34237;BME280;20501;45.956;13.632;2023-12-20T07:46:30;100363.94;;;5.68;68.08
34237;BME280;20501;45.956;13.632;2023-12-20T07:48:56;100369.91;;;5.96;67.25
34237;BME280;20501;45.956;13.632;2023-12-20T07:51:21;100370.25;;;7.20;64.97
34237;BME280;20501;45.956;13.632;2023-12-20T07:53:47;100368.34;;;6.29;65.03
34237;BME280;20501;45.956;13.632;2023-12-20T07:56:18;100367.78;;;5.88;67.02
34237;BME280;20501;45.956;13.632;2023-12-20T07:58:44;100374.44;;;5.71;67.23
34237;BME280;20501;45.956;13.632;2023-12-20T08:01:10;100384.97;;;5.86;67.08
34237;BME280;20501;45.956;13.632;2023-12-20T08:03:36;100388.25;;;5.89;67.25
34237;BME280;20501;45.956;13.632;2023-12-20T08:06:02;100390.22;;;5.87;67.01
34237;BME280;20501;45.956;13.632;2023-12-20T08:08:27;100394.28;;;5.93;66.60
34237;BME280;20501;45.956;13.632;2023-12-20T08:10:53;100397.19;;;5.90;67.54
34237;BME280;20501;45.956;13.632;2023-12-20T08:13:18;100387.38;;;5.78;67.65
34237;BME280;20501;45.956;13.632;2023-12-20T08:15:44;100389.31;;;6.00;67.14
34237;BME280;20501;45.956;13.632;2023-12-20T08:18:09;100392.09;;;5.98;67.35
34237;BME280;20501;45.956;13.632;2023-12-20T08:20:35;100401.31;;;5.94;67.39
34237;BME280;20501;45.956;13.632;2023-12-20T08:23:00;100399.34;;;5.85;67.19
34237;BME280;20501;45.956;13.632;2023-12-20T08:25:25;100395.06;;;5.82;67.33
34237;BME280;20501;45.956;13.632;2023-12-20T08:27:52;100395.69;;;5.86;67.62
34237;BME280;20501;45.956;13.632;2023-12-20T08:30:18;100401.88;;;5.99;67.24
34237;BME280;20501;45.956;13.632;2023-12-20T08:32:49;100396.22;;;6.15;66.29
34237;BME280;20501;45.956;13.632;2023-12-20T08:35:15;100400.28;;;6.21;66.36
34237;BME280;20501;45.956;13.632;2023-12-20T08:37:40;100401.28;;;6.31;66.41
34237;BME280;20501;45.956;13.632;2023-12-20T08:40:06;100393.00;;;6.34;66.47
34237;BME280;20501;45.956;13.632;2023-12-20T08:42:32;100396.41;;;6.25;66.38
34237;BME280;20501;45.956;13.632;2023-12-20T08:44:58;100393.84;;;6.35;65.51
34237;BME280;20501;45.956;13.632;2023-12-20T08:47:24;100393.63;;;6.38;65.86
34237;BME280;20501;45.956;13.632;2023-12-20T08:49:49;100388.75;;;6.55;66.38
34237;BME280;20501;45.956;13.632;2023-12-20T08:52:15;100385.47;;;6.51;66.46
34237;BME280;20501;45.956;13.632;2023-12-20T08:54:40;100387.34;;;6.62;66.71
34237;BME280;20501;45.956;13.632;2023-12-20T08:57:06;100406.19;;;6.96;66.98
34237;BME280;20501;45.956;13.632;2023-12-20T08:59:32;100420.28;;;6.75;67.45
34237;BME280;20501;45.956;13.632;2023-12-20T09:01:58;100438.25;;;6.75;67.41
34237;BME280;20501;45.956;13.632;2023-12-20T09:04:23;100437.75;;;6.81;67.03
34237;BME280;20501;45.956;13.632;2023-12-20T09:06:49;100446.88;;;6.67;67.62
34237;BME280;20501;45.956;13.632;2023-12-20T09:09:14;100441.16;;;6.72;66.87
34237;BME280;20501;45.956;13.632;2023-12-20T09:11:40;100430.16;;;6.63;66.29
34237;BME280;20501;45.956;13.632;2023-12-20T09:14:06;100412.31;;;6.51;66.79
34237;BME280;20501;45.956;13.632;2023-12-20T09:16:31;100412.03;;;6.43;66.48
34237;BME280;20501;45.956;13.632;2023-12-20T09:18:57;100415.28;;;6.71;66.15
34237;BME280;20501;45.956;13.632;2023-12-20T09:21:23;100423.34;;;6.82;66.52
34237;BME280;20501;45.956;13.632;2023-12-20T09:23:48;100419.34;;;6.99;66.33
34237;BME280;20501;45.956;13.632;2023-12-20T09:26:14;100419.94;;;7.03;65.21
34237;BME280;20501;45.956;13.632;2023-12-20T09:28:39;100410.81;;;7.05;65.50
34237;BME280;20501;45.956;13.632;2023-12-20T09:31:05;100409.72;;;7.19;65.28
34237;BME280;20501;45.956;13.632;2023-12-20T09:33:32;100399.94;;;7.30;65.19
34237;BME280;20501;45.956;13.632;2023-12-20T09:35:57;100394.69;;;7.39;65.28
34237;BME280;20501;45.956;13.632;2023-12-20T09:38:23;100397.22;;;7.52;66.02
34237;BME280;20501;45.956;13.632;2023-12-20T09:40:48;100378.50;;;7.51;65.95
34237;BME280;20501;45.956;13.632;2023-12-20T09:43:15;100378.75;;;7.59;64.77
34237;BME280;20501;45.956;13.632;2023-12-20T09:45:42;100377.06;;;7.58;66.52
34237;BME280;20501;45.956;13.632;2023-12-20T09:48:11;100381.09;;;7.52;65.81
34237;BME280;20501;45.956;13.632;2023-12-20T09:50:37;100380.59;;;7.58;65.03
34237;BME280;20501;45.956;13.632;2023-12-20T09:53:04;100374.63;;;7.43;65.70
34237;BME280;20501;45.956;13.632;2023-12-20T09:55:38;100369.22;;;7.55;65.32
34237;BME280;20501;45.956;13.632;2023-12-20T09:58:04;100372.53;;;7.47;66.78
34237;BME280;20501;45.956;13.632;2023-12-20T10:00:31;100372.91;;;7.42;67.77
34237;BME280;20501;45.956;13.632;2023-12-20T10:02:58;100370.13;;;7.33;68.64
34237;BME280;20501;45.956;13.632;2023-12-20T10:05:27;100367.53;;;7.42;68.36
34237;BME280;20501;45.956;13.632;2023-12-20T10:07:53;100367.06;;;7.49;67.42
34237;BME280;20501;45.956;13.632;2023-12-20T10:10:18;100351.16;;;7.57;66.93
34237;BME280;20501;45.956;13.632;2023-12-20T10:15:28;100336.13;;;7.54;68.21
34237;BME280;20501;45.956;13.632;2023-12-20T10:17:53;100331.84;;;7.52;68.13
34237;BME280;20501;45.956;13.632;2023-12-20T10:20:20;100327.34;;;7.52;67.12
34237;BME280;20501;45.956;13.632;2023-12-20T10:22:46;100340.03;;;7.50;67.55
34237;BME280;20501;45.956;13.632;2023-12-20T10:25:12;100341.75;;;7.51;67.93
34237;BME280;20501;45.956;13.632;2023-12-20T10:27:37;100340.16;;;7.60;68.42
34237;BME280;20501;45.956;13.632;2023-12-20T10:30:03;100333.91;;;7.59;69.15
34237;BME280;20501;45.956;13.632;2023-12-20T10:32:28;100348.69;;;7.54;69.33
34237;BME280;20501;45.956;13.632;2023-12-20T10:34:55;100340.59;;;7.21;68.87
34237;BME280;20501;45.956;13.632;2023-12-20T10:37:21;100343.13;;;7.34;69.35
34237;BME280;20501;45.956;13.632;2023-12-20T10:39:51;100340.53;;;7.55;67.67
34237;BME280;20501;45.956;13.632;2023-12-20T10:42:21;100334.81;;;7.49;67.71
34237;BME280;20501;45.956;13.632;2023-12-20T10:44:47;100342.97;;;7.47;66.88
34237;BME280;20501;45.956;13.632;2023-12-20T10:47:13;100336.13;;;7.54;66.39
34237;BME280;20501;45.956;13.632;2023-12-20T10:49:39;100334.44;;;7.53;66.85
34237;BME280;20501;45.956;13.632;2023-12-20T10:52:06;100327.16;;;7.65;66.21
34237;BME280;20501;45.956;13.632;2023-12-20T10:54:32;100325.06;;;7.69;66.52
34237;BME280;20501;45.956;13.632;2023-12-20T10:56:58;100312.56;;;7.47;68.01
34237;BME280;20501;45.956;13.632;2023-12-20T10:59:26;100303.19;;;7.41;68.24
34237;BME280;20501;45.956;13.632;2023-12-20T11:01:54;100283.25;;;7.43;68.44
34237;BME280;20501;45.956;13.632;2023-12-20T11:04:30;100277.94;;;7.65;67.29
34237;BME280;20501;45.956;13.632;2023-12-20T11:07:29;100294.84;;;7.77;68.64
34237;BME280;20501;45.956;13.632;2023-12-20T11:09:57;100278.97;;;7.73;67.26
34237;BME280;20501;45.956;13.632;2023-12-20T11:12:46;100279.75;;;7.64;67.16
34237;BME280;20501;45.956;13.632;2023-12-20T11:15:14;100280.34;;;7.68;67.57
34237;BME280;20501;45.956;13.632;2023-12-20T11:17:40;100283.50;;;7.73;66.97
34237;BME280;20501;45.956;13.632;2023-12-20T11:20:07;100273.34;;;7.77;67.06
34237;BME280;20501;45.956;13.632;2023-12-20T11:22:35;100261.75;;;7.76;67.51
34237;BME280;20501;45.956;13.632;2023-12-20T11:25:06;100260.03;;;7.75;68.46
34237;BME280;20501;45.956;13.632;2023-12-20T11:27:34;100245.72;;;7.74;68.75
34237;BME280;20501;45.956;13.632;2023-12-20T11:30:02;100247.72;;;7.94;69.34
34237;BME280;20501;45.956;13.632;2023-12-20T11:32:28;100243.63;;;8.20;68.83
34237;BME280;20501;45.956;13.632;2023-12-20T11:34:58;100250.69;;;8.21;68.48
34237;BME280;20501;45.956;13.632;2023-12-20T11:37:31;100249.69;;;8.13;69.55
34237;BME280;20501;45.956;13.632;2023-12-20T11:42:33;100257.41;;;8.06;69.45
34237;BME280;20501;45.956;13.632;2023-12-20T11:44:59;100248.22;;;8.09;68.55
34237;BME280;20501;45.956;13.632;2023-12-20T11:47:25;100251.97;;;8.17;67.97
34237;BME280;20501;45.956;13.632;2023-12-20T11:49:51;100255.97;;;8.02;67.85
34237;BME280;20501;45.956;13.632;2023-12-20T11:52:16;100243.50;;;8.01;68.44
34237;BME280;20501;45.956;13.632;2023-12-20T11:54:42;100243.44;;;8.12;68.05
34237;BME280;20501;45.956;13.632;2023-12-20T11:57:07;100244.56;;;8.10;67.35
34237;BME280;20501;45.956;13.632;2023-12-20T11:59:33;100232.22;;;7.86;67.26
34237;BME280;20501;45.956;13.632;2023-12-20T12:01:58;100235.78;;;7.86;67.58
34237;BME280;20501;45.956;13.632;2023-12-20T12:04:26;100239.34;;;8.18;67.81
34237;BME280;20501;45.956;13.632;2023-12-20T12:06:52;100234.28;;;8.25;66.89
34237;BME280;20501;45.956;13.632;2023-12-20T12:09:17;100224.88;;;8.40;66.89
34237;BME280;20501;45.956;13.632;2023-12-20T12:11:43;100216.16;;;8.48;67.10
34237;BME280;20501;45.956;13.632;2023-12-20T12:14:09;100220.75;;;8.67;67.37
34237;BME280;20501;45.956;13.632;2023-12-20T12:16:35;100223.91;;;8.82;66.58
34237;BME280;20501;45.956;13.632;2023-12-20T12:19:00;100226.91;;;8.79;67.87
34237;BME280;20501;45.956;13.632;2023-12-20T12:21:26;100238.78;;;8.76;67.32
34237;BME280;20501;45.956;13.632;2023-12-20T12:23:51;100233.38;;;8.66;67.54
34237;BME280;20501;45.956;13.632;2023-12-20T12:26:18;100231.38;;;8.59;66.88
34237;BME280;20501;45.956;13.632;2023-12-20T12:28:44;100221.59;;;8.58;67.20
34237;BME280;20501;45.956;13.632;2023-12-20T12:31:18;100215.63;;;8.64;67.33
34237;BME280;20501;45.956;13.632;2023-12-20T12:33:43;100202.06;;;8.75;66.13
34237;BME280;20501;45.956;13.632;2023-12-20T12:36:10;100201.09;;;8.76;66.30
34237;BME280;20501;45.956;13.632;2023-12-20T12:38:36;100193.88;;;8.77;66.64
34237;BME280;20501;45.956;13.632;2023-12-20T12:41:01;100193.97;;;8.65;66.48
34237;BME280;20501;45.956;13.632;2023-12-20T12:43:27;100195.13;;;8.63;67.03
34237;BME280;20501;45.956;13.632;2023-12-20T12:45:53;100198.50;;;8.65;67.13
34237;BME280;20501;45.956;13.632;2023-12-20T12:48:18;100199.22;;;8.67;67.26